TimePST,TemperatureF,Dew PointF,Humidity,Sea Level PressureIn,VisibilityMPH,Wind Direction,Wind SpeedMPH,Gust SpeedMPH,PrecipitationIn,Events,Conditions,WindDirDegrees,DateUTC
12:16 AM,46.9,46.0,97,30.24,2.5,Calm,Calm,-,N/A,,Overcast,0,2014-02-12 08:16:00
12:24 AM,46.9,46.9,100,30.25,1.0,SE,3.5,-,N/A,,Overcast,140,2014-02-12 08:24:00
12:50 AM,48.2,48.2,100,30.24,2.5,Calm,Calm,-,N/A,,Overcast,0,2014-02-12 08:50:00
12:54 AM,48.0,48.0,100,30.22,3.0,Calm,Calm,-,N/A,,Overcast,0,2014-02-12 08:54:00
1:54 AM,48.9,48.9,100,30.21,9.0,Calm,Calm,-,N/A,,Overcast,0,2014-02-12 09:54:00
2:54 AM,48.0,48.0,100,30.21,7.0,NNW,3.5,-,N/A,,Overcast,330,2014-02-12 10:54:00
3:26 AM,48.0,48.0,100,30.23,2.0,Calm,Calm,-,N/A,,Overcast,0,2014-02-12 11:26:00
3:39 AM,48.0,48.0,100,30.23,1.8,Calm,Calm,-,N/A,,Overcast,0,2014-02-12 11:39:00
3:54 AM,48.0,48.0,100,30.20,1.2,NW,3.5,-,N/A,,Overcast,320,2014-02-12 11:54:00
4:26 AM,48.0,48.0,100,30.24,2.5,NW,4.6,-,N/A,,Overcast,320,2014-02-12 12:26:00
4:38 AM,48.0,48.0,100,30.24,1.5,NNW,5.8,-,N/A,,Overcast,330,2014-02-12 12:38:00
4:51 AM,46.4,46.4,100,30.24,3.0,NNW,4.6,-,N/A,,Overcast,330,2014-02-12 12:51:00
4:54 AM,46.9,46.9,100,30.22,3.0,NW,5.8,-,N/A,,Overcast,320,2014-02-12 12:54:00
5:00 AM,48.0,48.0,100,30.24,1.8,NW,3.5,-,N/A,,Overcast,320,2014-02-12 13:00:00
5:26 AM,46.9,46.9,100,30.25,3.0,West,4.6,-,N/A,,Overcast,260,2014-02-12 13:26:00
5:46 AM,46.9,46.9,100,30.23,1.8,Calm,Calm,-,N/A,,Overcast,0,2014-02-12 13:46:00
5:54 AM,46.9,46.9,100,30.21,1.0,WNW,3.5,-,N/A,,Overcast,290,2014-02-12 13:54:00
6:08 AM,46.9,46.9,100,30.23,3.0,West,4.6,-,N/A,,Overcast,280,2014-02-12 14:08:00
6:54 AM,46.9,46.9,100,30.24,5.0,WNW,6.9,-,N/A,,Overcast,300,2014-02-12 14:54:00
7:25 AM,46.9,46.9,100,30.26,2.5,NW,3.5,-,N/A,,Overcast,320,2014-02-12 15:25:00
7:34 AM,46.9,46.9,100,30.25,4.0,WNW,3.5,-,N/A,,Overcast,290,2014-02-12 15:34:00
7:54 AM,46.9,46.9,100,30.26,2.0,NW,6.9,-,N/A,,Overcast,310,2014-02-12 15:54:00
8:22 AM,46.9,46.9,100,30.27,4.0,Calm,Calm,-,N/A,,Overcast,0,2014-02-12 16:22:00
8:54 AM,48.0,48.0,100,30.23,6.0,South,5.8,-,N/A,,Overcast,180,2014-02-12 16:54:00
9:40 AM,48.0,48.0,100,30.26,10.0,SSW,5.8,-,N/A,,Overcast,210,2014-02-12 17:40:00
9:54 AM,48.9,48.0,97,30.25,10.0,West,5.8,-,N/A,,Overcast,260,2014-02-12 17:54:00
10:25 AM,50.0,48.9,96,30.28,10.0,West,3.5,-,N/A,,Overcast,280,2014-02-12 18:25:00
10:54 AM,50.0,48.9,96,30.26,10.0,WNW,3.5,-,N/A,,Overcast,300,2014-02-12 18:54:00
11:54 AM,52.0,48.0,86,30.23,10.0,West,4.6,-,N/A,,Overcast,270,2014-02-12 19:54:00
12:03 PM,52.0,48.0,86,30.26,10.0,West,4.6,-,N/A,,Overcast,260,2014-02-12 20:03:00
12:43 PM,54.0,48.9,83,30.24,10.0,Calm,Calm,-,N/A,,Scattered Clouds,0,2014-02-12 20:43:00
12:54 PM,54.0,48.9,83,30.21,10.0,West,3.5,-,N/A,,Partly Cloudy,270,2014-02-12 20:54:00
1:54 PM,55.9,50.0,80,30.20,10.0,Calm,Calm,-,N/A,,Clear,0,2014-02-12 21:54:00
2:54 PM,57.9,51.1,78,30.19,10.0,Calm,Calm,-,N/A,,Clear,0,2014-02-12 22:54:00
3:54 PM,59.0,51.1,75,30.17,10.0,SSW,3.5,-,N/A,,Clear,200,2014-02-12 23:54:00
4:54 PM,57.9,52.0,81,30.17,10.0,SSW,8.1,-,N/A,,Clear,200,2014-02-13 00:54:00
5:54 PM,55.0,52.0,89,30.17,10.0,South,6.9,-,N/A,,Scattered Clouds,190,2014-02-13 01:54:00
6:54 PM,54.0,51.1,90,30.17,10.0,SSW,4.6,-,N/A,,Clear,200,2014-02-13 02:54:00
7:54 PM,51.1,50.0,96,30.17,10.0,SW,4.6,-,N/A,,Clear,220,2014-02-13 03:54:00
8:54 PM,51.1,50.0,96,30.18,10.0,Calm,Calm,-,N/A,,Clear,0,2014-02-13 04:54:00
9:54 PM,50.0,50.0,100,30.18,10.0,North,-9999.0,-,N/A,,Clear,0,2014-02-13 05:54:00
10:54 PM,50.0,48.9,96,30.18,10.0,Calm,Calm,-,N/A,,Clear,0,2014-02-13 06:54:00
11:54 PM,50.0,50.0,100,30.19,10.0,North,-9999.0,-,N/A,,Scattered Clouds,0,2014-02-13 07:54:00